Time;durP1;ratioP1;P1;durP2;ratioP2;P2;SDS_P1;SDS_P2;PMS_P1;PMS_P2;Temp;Humidity;BMP_temperature;BMP_pressure;BME280_temperature;BME280_humidity;BME280_pressure;Samples;Min_cycle;Max_cycle;Signal;HPM_P1;HPM_P2
2022/01/31 00:01:27;;;;;;;;;;;;;;;;;;6278017;22;19961;-85
2022/01/31 00:03:53;;;;;;;;;;;;;;;;;;6250971;22;20203;-88
2022/01/31 00:06:18;;;;;;;;;;;;;;;;;;6251036;22;19911;-88
2022/01/31 00:08:43;;;;;;;;;;;;;;;;;;6278025;22;19914;-89
2022/01/31 00:11:11;;;;;;;;;;;;;;;;;;6278566;22;19917;-89
2022/01/31 00:13:40;;;;;;;;;;;;;;;;;;6278058;22;19950;-86
2022/01/31 00:16:08;;;;;;;;;;;;;;;;;;6277980;22;19912;-88
2022/01/31 00:18:33;;;;;;;;;;;;;;;;;;6277864;22;19953;-86
2022/01/31 00:20:59;;;;;;;;;;;;;;;;;;6251833;22;19914;-88
2022/01/31 00:23:24;;;;;;;;;;;;;;;;;;6251307;22;19908;-85
2022/01/31 00:25:49;;;;;;;;;;;;;;;;;;6277989;22;19921;-85
2022/01/31 00:28:14;;;;;;;;;;;;;;;;;;6278063;22;19930;-86
2022/01/31 00:30:42;;;;;;;;;;;;;;;;;;6278159;22;19946;-85
2022/01/31 00:33:07;;;;;;;;;;;;;;;;;;6278028;22;19972;-86
2022/01/31 00:35:32;;;;;;;;;;;;;;;;;;6277004;22;19974;-89
2022/01/31 00:37:58;;;;;;;;;;;;;;;;;;6278013;22;19919;-87
2022/01/31 00:40:23;;;;;;;;;;;;;;;;;;6277905;22;20159;-86
2022/01/31 00:42:48;;;;;;;;;;;;;;;;;;6277931;22;19934;-90
2022/01/31 00:45:20;;;;;;;;;;;;;;;;;;6279270;22;19988;-89
2022/01/31 00:47:58;;;;;;;;;;;;;;;;;;6279829;22;19907;-85
2022/01/31 00:50:23;;;;;;;;;;;;;;;;;;6279817;22;19918;-87
2022/01/31 00:52:48;;;;;;;;;;;;;;;;;;6279754;22;20215;-85
2022/01/31 00:55:14;;;;;;;;;;;;;;;;;;6279728;22;19907;-85
2022/01/31 00:57:42;;;;;;;;;;;;;;;;;;6278559;22;19907;-85
2022/01/31 01:00:08;;;;;;;;;;;;;;;;;;6278534;22;20291;-85
2022/01/31 01:02:35;;;;;;;;;;;;;;;;;;6279567;22;19998;-86
2022/01/31 01:05:01;;;;;;;;;;;;;;;;;;6252797;22;19922;-88
2022/01/31 01:07:26;;;;;;;;;;;;;;;;;;6279756;22;20219;-88
2022/01/31 01:09:54;;;;;;;;;;;;;;;;;;6279528;22;19907;-87
2022/01/31 01:12:19;;;;;;;;;;;;;;;;;;6279699;22;19907;-86
2022/01/31 01:14:44;;;;;;;;;;;;;;;;;;6278577;22;19922;-89
2022/01/31 01:17:10;;;;;;;;;;;;;;;;;;6278444;22;19907;-88
2022/01/31 01:19:35;;;;;;;;;;;;;;;;;;6279746;22;19908;-87
2022/01/31 01:22:01;;;;;;;;;;;;;;;;;;6279347;22;20314;-84
2022/01/31 01:24:26;;;;;;;;;;;;;;;;;;6279438;22;19946;-86
2022/01/31 01:26:51;;;;;;;;;;;;;;;;;;6279536;22;19950;-83
2022/01/31 01:29:17;;;;;;;;;;;;;;;;;;6252733;22;19908;-87
2022/01/31 01:31:45;;;;;;;;;;;;;;;;;;6279416;22;20042;-84
2022/01/31 01:34:10;;;;;;;;;;;;;;;;;;6280030;22;19907;-87
2022/01/31 01:36:35;;;;;;;;;;;;;;;;;;6279234;22;19918;-86
2022/01/31 01:39:00;;;;;;;;;;;;;;;;;;6279501;22;19978;-89
2022/01/31 01:41:25;;;;;;;;;;;;;;;;;;6278269;22;19908;-88
2022/01/31 01:43:51;;;;;;;;;;;;;;;;;;6279150;22;19955;-88
2022/01/31 01:46:16;;;;;;;;;;;;;;;;;;6278895;22;20247;-86
2022/01/31 01:48:41;;;;;;;;;;;;;;;;;;6279300;22;19954;-86
2022/01/31 01:51:06;;;;;;;;;;;;;;;;;;6278962;22;19934;-87
2022/01/31 01:53:31;;;;;;;;;;;;;;;;;;6279075;22;19918;-87
2022/01/31 01:55:57;;;;;;;;;;;;;;;;;;6278916;22;19904;-86
2022/01/31 01:58:23;;;;;;;;;;;;;;;;;;6277914;22;20100;-86
2022/01/31 02:00:50;;;;;;;;;;;;;;;;;;6279243;22;19907;-87
2022/01/31 02:03:15;;;;;;;;;;;;;;;;;;6278215;22;19914;-86
2022/01/31 02:05:41;;;;;;;;;;;;;;;;;;6278106;22;19911;-89
2022/01/31 02:08:08;;;;;;;;;;;;;;;;;;6279557;22;20294;-86
2022/01/31 02:10:36;;;;;;;;;;;;;;;;;;6292808;22;19950;-87
2022/01/31 02:13:05;;;;;;;;;;;;;;;;;;6295857;22;19908;-84
2022/01/31 02:15:30;;;;;;;;;;;;;;;;;;6293414;22;19922;-90
2022/01/31 02:18:00;;;;;;;;;;;;;;;;;;6279691;22;19915;-88
2022/01/31 02:20:25;;;;;;;;;;;;;;;;;;6279172;22;19907;-88
2022/01/31 02:22:51;;;;;;;;;;;;;;;;;;6277949;22;19907;-86
2022/01/31 02:25:16;;;;;;;;;;;;;;;;;;6279124;22;19911;-87
2022/01/31 02:27:41;;;;;;;;;;;;;;;;;;6278914;22;19960;-86
2022/01/31 02:30:08;;;;;;;;;;;;;;;;;;6252213;22;19908;-88
2022/01/31 02:32:33;;;;;;;;;;;;;;;;;;6277635;22;19911;-89
2022/01/31 02:35:01;;;;;;;;;;;;;;;;;;6278744;22;19982;-87
2022/01/31 02:37:28;;;;;;;;;;;;;;;;;;6277845;22;20321;-87
2022/01/31 02:39:54;;;;;;;;;;;;;;;;;;6252382;22;20206;-90
2022/01/31 02:42:19;;;;;;;;;;;;;;;;;;6252126;22;19907;-91
2022/01/31 02:44:44;;;;;;;;;;;;;;;;;;6277745;22;20232;-92
2022/01/31 02:47:13;;;;;;;;;;;;;;;;;;6279423;22;19968;-90
2022/01/31 02:52:37;;;;;;;;;;;;;;;;;;6211560;22;19966;-83
2022/01/31 02:55:07;;;;;;;;;;;;;;;;;;6279269;22;19981;-90
2022/01/31 02:57:32;;;;;;;;;;;;;;;;;;6279437;22;19986;-90
2022/01/31 03:00:00;;;;;;;;;;;;;;;;;;6279273;22;19907;-87
2022/01/31 03:02:25;;;;;;;;;;;;;;;;;;6276833;22;19907;-89
2022/01/31 03:04:50;;;;;;;;;;;;;;;;;;6251993;22;19918;-89
2022/01/31 03:07:18;;;;;;;;;;;;;;;;;;6262014;22;19908;-86
2022/01/31 03:09:45;;;;;;;;;;;;;;;;;;6294811;22;19911;-89
2022/01/31 03:12:13;;;;;;;;;;;;;;;;;;6268928;22;19914;-87
2022/01/31 03:14:40;;;;;;;;;;;;;;;;;;6288937;22;20215;-92
2022/01/31 03:17:06;;;;;;;;;;;;;;;;;;6278666;22;19907;-91
2022/01/31 03:19:31;;;;;;;;;;;;;;;;;;6278658;22;20364;-89
2022/01/31 03:21:56;;;;;;;;;;;;;;;;;;6278679;22;19911;-90
2022/01/31 03:24:21;;;;;;;;;;;;;;;;;;6278661;22;19907;-92
2022/01/31 03:26:47;;;;;;;;;;;;;;;;;;6278634;22;19927;-88
2022/01/31 03:29:12;;;;;;;;;;;;;;;;;;6278681;22;19913;-87
2022/01/31 03:31:37;;;;;;;;;;;;;;;;;;6252197;22;19907;-91
2022/01/31 03:34:04;;;;;;;;;;;;;;;;;;6278582;22;19911;-88
2022/01/31 03:36:30;;;;;;;;;;;;;;;;;;6278442;22;19907;-90
2022/01/31 03:38:55;;;;;;;;;;;;;;;;;;6278769;22;19926;-85
2022/01/31 03:41:21;;;;;;;;;;;;;;;;;;6277484;22;19991;-90
2022/01/31 03:43:46;;;;;;;;;;;;;;;;;;6278665;22;19907;-91
2022/01/31 03:46:11;;;;;;;;;;;;;;;;;;6278375;22;19911;-90
2022/01/31 03:48:36;;;;;;;;;;;;;;;;;;6277114;22;20306;-90
2022/01/31 03:51:02;;;;;;;;;;;;;;;;;;6278552;22;19907;-87
2022/01/31 03:53:28;;;;;;;;;;;;;;;;;;6277586;22;19907;-89
2022/01/31 03:55:55;;;;;;;;;;;;;;;;;;6278186;22;19915;-88
2022/01/31 03:58:21;;;;;;;;;;;;;;;;;;6277280;22;19907;-89
2022/01/31 04:00:48;;;;;;;;;;;;;;;;;;6277133;22;19918;-87
2022/01/31 04:03:14;;;;;;;;;;;;;;;;;;6277236;22;19911;-88
2022/01/31 04:05:39;;;;;;;;;;;;;;;;;;6277485;22;19911;-88
2022/01/31 04:08:05;;;;;;;;;;;;;;;;;;6251712;22;19987;-87
2022/01/31 04:10:30;;;;;;;;;;;;;;;;;;6278487;22;19907;-90
2022/01/31 04:12:58;;;;;;;;;;;;;;;;;;6278414;22;19969;-86
2022/01/31 04:15:23;;;;;;;;;;;;;;;;;;6251537;22;19926;-91
2022/01/31 04:17:48;;;;;;;;;;;;;;;;;;6278706;22;19907;-87
2022/01/31 04:20:17;;;;;;;;;;;;;;;;;;6280461;22;19908;-90
2022/01/31 04:22:50;;;;;;;;;;;;;;;;;;6279077;22;19907;-89
2022/01/31 04:28:04;;;;;;;;;;;;;;;;;;6279466;22;20340;-88
2022/01/31 04:30:35;;;;;;;;;;;;;;;;;;6253465;22;20213;-84
2022/01/31 04:33:01;;;;;;;;;;;;;;;;;;6280318;22;19919;-83
2022/01/31 04:35:31;;;;;;;;;;;;;;;;;;6279000;22;19907;-90
2022/01/31 04:37:59;;;;;;;;;;;;;;;;;;6280246;22;19908;-87
2022/01/31 04:40:24;;;;;;;;;;;;;;;;;;6280168;22;19911;-88
2022/01/31 04:42:49;;;;;;;;;;;;;;;;;;6253505;22;19977;-87
2022/01/31 04:45:17;;;;;;;;;;;;;;;;;;6280014;22;19911;-88
2022/01/31 04:47:42;;;;;;;;;;;;;;;;;;6280193;22;19907;-87
2022/01/31 04:50:07;;;;;;;;;;;;;;;;;;6253163;22;20430;-87
2022/01/31 04:52:32;;;;;;;;;;;;;;;;;;6253584;22;19911;-89
2022/01/31 04:54:58;;;;;;;;;;;;;;;;;;6280068;22;19965;-87
2022/01/31 04:57:23;;;;;;;;;;;;;;;;;;6279890;22;19918;-83
2022/01/31 04:59:49;;;;;;;;;;;;;;;;;;6280046;22;19985;-86
2022/01/31 05:02:14;;;;;;;;;;;;;;;;;;6277206;22;19907;-86
2022/01/31 05:04:40;;;;;;;;;;;;;;;;;;6278595;22;19919;-87
2022/01/31 05:07:05;;;;;;;;;;;;;;;;;;6279167;22;19922;-87
2022/01/31 05:09:30;;;;;;;;;;;;;;;;;;6279049;22;19917;-87
2022/01/31 05:11:56;;;;;;;;;;;;;;;;;;6279360;22;19911;-85
2022/01/31 05:14:23;;;;;;;;;;;;;;;;;;6279587;22;19934;-87
2022/01/31 05:16:48;;;;;;;;;;;;;;;;;;6279647;22;20307;-88
2022/01/31 05:19:14;;;;;;;;;;;;;;;;;;6279930;22;19907;-84
2022/01/31 05:21:39;;;;;;;;;;;;;;;;;;6279640;22;19939;-87
2022/01/31 05:24:04;;;;;;;;;;;;;;;;;;6279566;22;19907;-89
2022/01/31 05:26:30;;;;;;;;;;;;;;;;;;6279773;22;19922;-86
2022/01/31 05:28:55;;;;;;;;;;;;;;;;;;6279380;22;19907;-88
2022/01/31 05:31:20;;;;;;;;;;;;;;;;;;6278243;22;20192;-86
2022/01/31 05:33:45;;;;;;;;;;;;;;;;;;6279346;22;19986;-87
2022/01/31 05:36:11;;;;;;;;;;;;;;;;;;6279742;22;19907;-86
2022/01/31 05:38:39;;;;;;;;;;;;;;;;;;6279622;22;19907;-87
2022/01/31 05:41:07;;;;;;;;;;;;;;;;;;6252573;22;20254;-86
2022/01/31 05:43:33;;;;;;;;;;;;;;;;;;6279905;22;19918;-88
2022/01/31 05:45:58;;;;;;;;;;;;;;;;;;6279413;22;19986;-87
2022/01/31 05:48:26;;;;;;;;;;;;;;;;;;6279744;22;20340;-87
2022/01/31 05:50:51;;;;;;;;;;;;;;;;;;6279327;22;19933;-87
2022/01/31 05:53:16;;;;;;;;;;;;;;;;;;6278906;22;19986;-89
2022/01/31 05:55:43;;;;;;;;;;;;;;;;;;6279330;22;19917;-87
2022/01/31 05:58:09;;;;;;;;;;;;;;;;;;6253327;22;20356;-79
2022/01/31 06:00:37;;;;;;;;;;;;;;;;;;6252541;22;19911;-80
2022/01/31 06:03:05;;;;;;;;;;;;;;;;;;6278140;22;19946;-80
2022/01/31 06:05:32;;;;;;;;;;;;;;;;;;6278070;22;19919;-80
2022/01/31 06:07:58;;;;;;;;;;;;;;;;;;6279383;22;20282;-80
2022/01/31 06:10:23;;;;;;;;;;;;;;;;;;6279517;22;19968;-81
2022/01/31 06:12:51;;;;;;;;;;;;;;;;;;6278175;22;19908;-81
2022/01/31 06:15:16;;;;;;;;;;;;;;;;;;6252274;22;19922;-80
2022/01/31 06:17:43;;;;;;;;;;;;;;;;;;6279183;22;20237;-80
2022/01/31 06:20:11;;;;;;;;;;;;;;;;;;6278949;22;20227;-80
2022/01/31 06:22:43;;;;;;;;;;;;;;;;;;6252340;22;20365;-79
2022/01/31 06:25:12;;;;;;;;;;;;;;;;;;6279130;22;19911;-80
2022/01/31 06:27:37;;;;;;;;;;;;;;;;;;6277929;22;19907;-81
2022/01/31 06:30:05;;;;;;;;;;;;;;;;;;6279026;22;19922;-79
2022/01/31 06:32:31;;;;;;;;;;;;;;;;;;6279030;22;19917;-79
2022/01/31 06:34:57;;;;;;;;;;;;;;;;;;6277473;22;19938;-79
2022/01/31 06:37:24;;;;;;;;;;;;;;;;;;6279097;22;19907;-79
2022/01/31 06:39:49;;;;;;;;;;;;;;;;;;6278841;22;19982;-79
2022/01/31 06:42:15;;;;;;;;;;;;;;;;;;6278824;22;19915;-79
2022/01/31 06:44:40;;;;;;;;;;;;;;;;;;6277853;22;19907;-79
2022/01/31 06:47:05;;;;;;;;;;;;;;;;;;6278663;22;19965;-80
2022/01/31 06:49:35;;;;;;;;;;;;;;;;;;6278788;22;19965;-82
2022/01/31 06:52:00;;;;;;;;;;;;;;;;;;6277786;22;19914;-81
2022/01/31 06:54:26;;;;;;;;;;;;;;;;;;6277629;22;19907;-80
2022/01/31 06:56:51;;;;;;;;;;;;;;;;;;6278818;22;20346;-80
2022/01/31 06:59:16;;;;;;;;;;;;;;;;;;6278782;22;20264;-80
2022/01/31 07:01:44;;;;;;;;;;;;;;;;;;6251852;22;19999;-80
2022/01/31 07:04:11;;;;;;;;;;;;;;;;;;6278546;22;19907;-79
2022/01/31 07:06:41;;;;;;;;;;;;;;;;;;6278640;22;19911;-79
2022/01/31 07:09:06;;;;;;;;;;;;;;;;;;6278498;22;19907;-79
2022/01/31 07:11:36;;;;;;;;;;;;;;;;;;6278706;22;19907;-79
2022/01/31 07:14:29;;;;;;;;;;;;;;;;;;6278668;22;19908;-79
2022/01/31 07:16:52;;;;;;;;;;;;;;;;;;6278456;22;20328;-79
2022/01/31 07:19:19;;;;;;;;;;;;;;;;;;6278260;22;19907;-79
2022/01/31 07:21:51;;;;;;;;;;;;;;;;;;6277060;22;19907;-79
2022/01/31 07:26:48;;;;;;;;;;;;;;;;;;6276996;22;19912;-79
2022/01/31 07:29:13;;;;;;;;;;;;;;;;;;6278537;22;20237;-80
2022/01/31 07:31:39;;;;;;;;;;;;;;;;;;6278324;22;19907;-79
2022/01/31 07:34:04;;;;;;;;;;;;;;;;;;6278101;22;19949;-81
2022/01/31 07:36:30;;;;;;;;;;;;;;;;;;6277127;22;19931;-80
2022/01/31 07:38:57;;;;;;;;;;;;;;;;;;6277278;22;19908;-80
2022/01/31 07:41:23;;;;;;;;;;;;;;;;;;6277000;22;20314;-81
2022/01/31 07:43:53;;;;;;;;;;;;;;;;;;6277251;22;19945;-80
2022/01/31 07:46:21;;;;;;;;;;;;;;;;;;6276879;22;19917;-80
2022/01/31 07:48:48;;;;;;;;;;;;;;;;;;6278753;22;20283;-80
2022/01/31 07:51:13;;;;;;;;;;;;;;;;;;6278227;22;19970;-80
2022/01/31 07:53:44;;;;;;;;;;;;;;;;;;6277212;22;19907;-80
2022/01/31 07:56:10;;;;;;;;;;;;;;;;;;6277289;22;19918;-79
2022/01/31 07:58:36;;;;;;;;;;;;;;;;;;6278170;22;19907;-78
2022/01/31 08:01:04;;;;;;;;;;;;;;;;;;6277340;22;20339;-79
2022/01/31 08:03:29;;;;;;;;;;;;;;;;;;6278620;22;19915;-81
2022/01/31 08:05:54;;;;;;;;;;;;;;;;;;6278214;22;20299;-80
2022/01/31 08:08:19;;;;;;;;;;;;;;;;;;6279017;22;20283;-80
2022/01/31 08:10:47;;;;;;;;;;;;;;;;;;6278630;22;19907;-80
2022/01/31 08:13:13;;;;;;;;;;;;;;;;;;6278834;22;19907;-80
2022/01/31 08:15:47;;;;;;;;;;;;;;;;;;6278442;22;20290;-80
2022/01/31 08:18:15;;;;;;;;;;;;;;;;;;6278440;22;20456;-79
2022/01/31 08:20:40;;;;;;;;;;;;;;;;;;6278269;22;20294;-80
2022/01/31 08:23:07;;;;;;;;;;;;;;;;;;6278169;22;19907;-81
2022/01/31 08:25:36;;;;;;;;;;;;;;;;;;6278482;22;19923;-79
2022/01/31 08:28:06;;;;;;;;;;;;;;;;;;6276039;22;19918;-79
2022/01/31 08:30:41;;;;;;;;;;;;;;;;;;6276663;22;19911;-79
2022/01/31 08:33:14;;;;;;;;;;;;;;;;;;6278214;22;19914;-80
2022/01/31 08:35:48;;;;;;;;;;;;;;;;;;6276974;22;19978;-80
2022/01/31 08:38:13;;;;;;;;;;;;;;;;;;6251397;22;20290;-79
2022/01/31 08:40:39;;;;;;;;;;;;;;;;;;6251288;22;19914;-80
2022/01/31 08:43:07;;;;;;;;;;;;;;;;;;6277962;22;19918;-80
2022/01/31 08:45:36;;;;;;;;;;;;;;;;;;6276648;22;20307;-80
2022/01/31 08:48:03;;;;;;;;;;;;;;;;;;6276982;22;19911;-81
2022/01/31 08:50:31;;;;;;;;;;;;;;;;;;6278464;22;19918;-80
2022/01/31 08:52:59;;;;;;;;;;;;;;;;;;6251292;22;19907;-81
2022/01/31 08:55:29;;;;;;;;;;;;;;;;;;6277209;22;19908;-80
2022/01/31 08:57:57;;;;;;;;;;;;;;;;;;6251573;22;20191;-81
2022/01/31 09:01:06;;;;;;;;;;;;;;;;;;6277345;22;19907;-80
2022/01/31 09:06:05;;;;;;;;;;;;;;;;;;6277946;22;20262;-81
2022/01/31 09:08:33;;;;;;;;;;;;;;;;;;6278479;22;19911;-81
2022/01/31 09:10:58;;;;;;;;;;;;;;;;;;6278519;22;20214;-80
2022/01/31 09:13:26;;;;;;;;;;;;;;;;;;6279720;22;19934;-80
2022/01/31 09:15:56;;;;;;;;;;;;;;;;;;6278511;22;19922;-80
2022/01/31 09:18:24;;;;;;;;;;;;;;;;;;6279428;22;20010;-81
2022/01/31 09:20:49;;;;;;;;;;;;;;;;;;6252841;22;19913;-80
2022/01/31 09:23:14;;;;;;;;;;;;;;;;;;6279395;22;19907;-80
2022/01/31 09:25:44;;;;;;;;;;;;;;;;;;6252847;22;19937;-80
2022/01/31 09:28:15;;;;;;;;;;;;;;;;;;6252791;22;20299;-81
2022/01/31 09:30:43;;;;;;;;;;;;;;;;;;6252785;22;19934;-81
2022/01/31 09:33:09;;;;;;;;;;;;;;;;;;6253206;22;19911;-81
2022/01/31 09:35:34;;;;;;;;;;;;;;;;;;6277048;22;19918;-81
2022/01/31 09:38:03;;;;;;;;;;;;;;;;;;6279398;22;19978;-81
2022/01/31 09:40:28;;;;;;;;;;;;;;;;;;6278220;22;19911;-81
2022/01/31 09:48:38;;;;;;;;;;;;;;;;;;6280212;22;19994;-80
2022/01/31 09:51:10;;;;;;;;;;;;;;;;;;6278607;22;19986;-82
2022/01/31 09:53:36;;;;;;;;;;;;;;;;;;6278398;22;19908;-81
2022/01/31 09:56:04;;;;;;;;;;;;;;;;;;6252699;22;19915;-81
2022/01/31 09:58:32;;;;;;;;;;;;;;;;;;6278289;22;19907;-80
2022/01/31 10:01:06;;;;;;;;;;;;;;;;;;6278482;22;19907;-80
2022/01/31 10:03:31;;;;;;;;;;;;;;;;;;6279251;22;19911;-80
2022/01/31 10:05:57;;;;;;;;;;;;;;;;;;6279234;22;19912;-80
2022/01/31 10:08:22;;;;;;;;;;;;;;;;;;6278144;22;20287;-79
2022/01/31 10:10:49;;;;;;;;;;;;;;;;;;6277963;22;19907;-79
2022/01/31 10:16:32;;;;;;;;;;;;;;;;;;6279108;22;20338;-81
2022/01/31 10:18:58;;;;;;;;;;;;;;;;;;6279147;22;19907;-81
2022/01/31 10:21:25;;;;;;;;;;;;;;;;;;6279068;22;20266;-81
2022/01/31 10:23:50;;;;;;;;;;;;;;;;;;6278234;22;19958;-81
2022/01/31 10:26:34;;;;;;;;;;;;;;;;;;6252212;22;19922;-81
2022/01/31 10:29:11;;;;;;;;;;;;;;;;;;6279169;22;19918;-81
2022/01/31 10:31:37;;;;;;;;;;;;;;;;;;6277948;22;19930;-80
2022/01/31 10:34:14;;;;;;;;;;;;;;;;;;6279122;22;20283;-80
2022/01/31 10:36:39;;;;;;;;;;;;;;;;;;6279008;22;19911;-80
2022/01/31 10:39:13;;;;;;;;;;;;;;;;;;6278871;22;19958;-82
2022/01/31 10:53:06;;;;;;;;;;;;;;;;;;6279096;22;19918;-81
2022/01/31 10:55:31;;;;;;;;;;;;;;;;;;6277974;22;19980;-81
2022/01/31 10:58:09;;;;;;;;;;;;;;;;;;6278765;22;20385;-80
2022/01/31 11:00:34;;;;;;;;;;;;;;;;;;6278773;22;20298;-80
2022/01/31 11:03:01;;;;;;;;;;;;;;;;;;6252072;22;19907;-81
2022/01/31 11:05:32;;;;;;;;;;;;;;;;;;6277502;22;20210;-82
2022/01/31 11:08:18;;;;;;;;;;;;;;;;;;6251803;22;19907;-81
2022/01/31 11:10:45;;;;;;;;;;;;;;;;;;6279177;22;19908;-79
2022/01/31 11:13:11;;;;;;;;;;;;;;;;;;6278795;22;19915;-80
2022/01/31 11:15:39;;;;;;;;;;;;;;;;;;6277374;22;19911;-81
2022/01/31 11:18:06;;;;;;;;;;;;;;;;;;6277484;22;19951;-81
2022/01/31 11:20:31;;;;;;;;;;;;;;;;;;6277543;22;19957;-80
2022/01/31 11:22:58;;;;;;;;;;;;;;;;;;6277494;22;20303;-80
2022/01/31 11:25:26;;;;;;;;;;;;;;;;;;6277490;22;19915;-81
2022/01/31 11:27:52;;;;;;;;;;;;;;;;;;6277126;22;19907;-80
2022/01/31 11:30:18;;;;;;;;;;;;;;;;;;6278486;22;19913;-80
2022/01/31 11:32:46;;;;;;;;;;;;;;;;;;6277566;22;19911;-81
2022/01/31 11:35:11;;;;;;;;;;;;;;;;;;6277568;22;19907;-81
2022/01/31 11:37:39;;;;;;;;;;;;;;;;;;6278459;22;20305;-81
2022/01/31 11:40:09;;;;;;;;;;;;;;;;;;6277215;22;20353;-81
2022/01/31 11:42:34;;;;;;;;;;;;;;;;;;6277505;22;19911;-81
2022/01/31 11:45:00;;;;;;;;;;;;;;;;;;6277063;22;20429;-81
2022/01/31 11:47:26;;;;;;;;;;;;;;;;;;6281285;22;19914;-83
2022/01/31 11:49:54;;;;;;;;;;;;;;;;;;6279184;22;19911;-82
2022/01/31 11:52:22;;;;;;;;;;;;;;;;;;6278510;22;19918;-81
2022/01/31 11:54:51;;;;;;;;;;;;;;;;;;6281468;22;19911;-80
2022/01/31 11:57:18;;;;;;;;;;;;;;;;;;6279855;22;19907;-81
2022/01/31 11:59:49;;;;;;;;;;;;;;;;;;6251953;22;20277;-81
2022/01/31 12:02:14;;;;;;;;;;;;;;;;;;6277873;22;19912;-81
2022/01/31 12:04:42;;;;;;;;;;;;;;;;;;6277283;22;19912;-81
2022/01/31 12:07:26;;;;;;;;;;;;;;;;;;6276852;22;19990;-82
2022/01/31 12:09:53;;;;;;;;;;;;;;;;;;6278277;22;19907;-80
2022/01/31 12:12:36;;;;;;;;;;;;;;;;;;6277340;22;19924;-81
2022/01/31 12:15:22;;;;;;;;;;;;;;;;;;6278598;22;19911;-81
2022/01/31 12:18:19;;;;;;;;;;;;;;;;;;6278414;22;20226;-82
2022/01/31 12:21:59;;;;;;;;;;;;;;;;;;6280051;22;19908;-81
2022/01/31 12:23:36;;;;;;;;;;;;;;;;;;6279549;22;20314;-81
2022/01/31 12:26:05;;;;;;;;;;;;;;;;;;6278671;22;20175;-82
2022/01/31 12:28:38;;;;;;;;;;;;;;;;;;6277331;22;19907;-82
2022/01/31 12:31:45;;;;;;;;;;;;;;;;;;6277728;22;19935;-81
2022/01/31 12:34:31;;;;;;;;;;;;;;;;;;6159971;23;19999;-81
2022/01/31 12:36:57;;;;;;;;;;;;;;;;;;6185521;23;19908;-82
2022/01/31 12:39:35;;;;;;;;;;;;;;;;;;6186582;23;19917;-82
2022/01/31 12:42:04;;;;;;;;;;;;;;;;;;6187235;23;19936;-80
2022/01/31 12:44:32;;;;;;;;;;;;;;;;;;6162761;23;19908;-81
2022/01/31 12:47:08;;;;;;;;;;;;;;;;;;6186756;23;19924;-80
2022/01/31 12:49:36;;;;;;;;;;;;;;;;;;6187072;23;19920;-81
2022/01/31 12:52:03;;;;;;;;;;;;;;;;;;6161922;23;19908;-80
2022/01/31 12:54:31;;;;;;;;;;;;;;;;;;6161588;23;19953;-80
2022/01/31 12:57:13;;;;;;;;;;;;;;;;;;6186247;23;20332;-81
2022/01/31 12:59:41;;;;;;;;;;;;;;;;;;6163349;23;19946;-81
2022/01/31 13:02:07;;;;;;;;;;;;;;;;;;6186566;23;19962;-80
2022/01/31 13:04:37;;;;;;;;;;;;;;;;;;6193808;22;19986;-79
2022/01/31 13:07:25;;;;;;;;;;;;;;;;;;6252365;22;20306;-80
2022/01/31 13:09:55;;;;;;;;;;;;;;;;;;6186277;23;19928;-80
2022/01/31 13:12:41;;;;;;;;;;;;;;;;;;6161842;23;20211;-80
2022/01/31 13:15:07;;;;;;;;;;;;;;;;;;6185579;23;19940;-80
2022/01/31 13:17:36;;;;;;;;;;;;;;;;;;6186025;23;20160;-79
2022/01/31 13:20:04;;;;;;;;;;;;;;;;;;6185516;23;19908;-80
2022/01/31 13:25:34;;;;;;;;;;;;;;;;;;6181891;23;19968;-80
2022/01/31 13:28:01;;;;;;;;;;;;;;;;;;6185857;23;19912;-81
2022/01/31 13:30:42;;;;;;;;;;;;;;;;;;6185694;23;19936;-80
2022/01/31 13:33:17;;;;;;;;;;;;;;;;;;6185956;23;19912;-81
2022/01/31 13:35:42;;;;;;;;;;;;;;;;;;6183735;23;19909;-83
2022/01/31 13:38:12;;;;;;;;;;;;;;;;;;6184684;23;19908;-81
2022/01/31 13:40:39;;;;;;;;;;;;;;;;;;6159126;23;20291;-82
2022/01/31 13:43:10;;;;;;;;;;;;;;;;;;6184460;23;20039;-81
2022/01/31 13:46:26;;;;;;;;;;;;;;;;;;6184810;23;19912;-82
2022/01/31 13:48:43;;;;;;;;;;;;;;;;;;6266884;22;19907;-80
2022/01/31 13:51:26;;;;;;;;;;;;;;;;;;6278316;22;19918;-83
2022/01/31 13:53:54;;;;;;;;;;;;;;;;;;6277677;22;19969;-82
2022/01/31 13:56:27;;;;;;;;;;;;;;;;;;6277628;22;19923;-81
2022/01/31 13:58:59;;;;;;;;;;;;;;;;;;6278882;22;19907;-82
2022/01/31 14:01:24;;;;;;;;;;;;;;;;;;6278181;22;19912;-83
2022/01/31 14:03:52;;;;;;;;;;;;;;;;;;6252079;22;20288;-81
2022/01/31 14:06:19;;;;;;;;;;;;;;;;;;6277817;22;19916;-83
2022/01/31 14:08:55;;;;;;;;;;;;;;;;;;6278591;22;19922;-83
2022/01/31 14:11:24;;;;;;;;;;;;;;;;;;6278712;22;20016;-83
2022/01/31 14:14:15;;;;;;;;;;;;;;;;;;6279486;22;19930;-92
2022/01/31 14:16:52;;;;;;;;;;;;;;;;;;6185812;23;19918;-88
2022/01/31 14:19:17;;;;;;;;;;;;;;;;;;6161280;23;19912;-85
2022/01/31 14:21:50;;;;;;;;;;;;;;;;;;6184406;23;19909;-81
2022/01/31 14:24:28;;;;;;;;;;;;;;;;;;6184806;23;20315;-80
2022/01/31 14:27:08;;;;;;;;;;;;;;;;;;6184648;23;19971;-79
2022/01/31 14:29:37;;;;;;;;;;;;;;;;;;6184960;23;19919;-80
2022/01/31 14:32:30;;;;;;;;;;;;;;;;;;6159698;23;19935;-80
2022/01/31 14:34:59;;;;;;;;;;;;;;;;;;6182409;23;19919;-79
2022/01/31 14:37:33;;;;;;;;;;;;;;;;;;6160250;23;20325;-80
2022/01/31 14:40:38;;;;;;;;;;;;;;;;;;6185448;23;19918;-81
2022/01/31 14:47:15;;;;;;;;;;;;;;;;;;6185242;23;20332;-82
2022/01/31 14:48:56;;;;;;;;;;;;;;;;;;6163993;23;20219;-81
2022/01/31 14:51:28;;;;;;;;;;;;;;;;;;6184889;23;19940;-81
2022/01/31 14:53:57;;;;;;;;;;;;;;;;;;6241655;22;19998;-82
2022/01/31 14:56:30;;;;;;;;;;;;;;;;;;6275953;22;19935;-81
2022/01/31 14:58:55;;;;;;;;;;;;;;;;;;6277028;22;19915;-85
2022/01/31 15:01:34;;;;;;;;;;;;;;;;;;6278624;22;19907;-80
2022/01/31 15:04:05;;;;;;;;;;;;;;;;;;6278099;22;20165;-82
2022/01/31 15:06:40;;;;;;;;;;;;;;;;;;6276961;22;19911;-81
2022/01/31 15:09:07;;;;;;;;;;;;;;;;;;6278284;22;19907;-81
2022/01/31 15:11:34;;;;;;;;;;;;;;;;;;6278233;22;19907;-82
2022/01/31 15:14:01;;;;;;;;;;;;;;;;;;6277320;22;19986;-81
2022/01/31 15:16:46;;;;;;;;;;;;;;;;;;6251059;22;20306;-81
2022/01/31 15:22:14;;;;;;;;;;;;;;;;;;6277612;22;20356;-81
2022/01/31 15:24:58;;;;;;;;;;;;;;;;;;6277833;22;19912;-81
2022/01/31 15:27:23;;;;;;;;;;;;;;;;;;6277976;22;20299;-82
2022/01/31 15:29:48;;;;;;;;;;;;;;;;;;6251337;22;19949;-82
2022/01/31 15:32:38;;;;;;;;;;;;;;;;;;6275783;22;20275;-82
2022/01/31 15:35:06;;;;;;;;;;;;;;;;;;6278389;22;19911;-82
2022/01/31 15:37:36;;;;;;;;;;;;;;;;;;6278211;22;20205;-81
2022/01/31 15:40:05;;;;;;;;;;;;;;;;;;6277042;22;19930;-80
2022/01/31 15:42:30;;;;;;;;;;;;;;;;;;6251491;22;19907;-86
2022/01/31 15:45:04;;;;;;;;;;;;;;;;;;6251779;22;20218;-90
2022/01/31 15:47:35;;;;;;;;;;;;;;;;;;6279493;22;19958;-85
2022/01/31 15:50:09;;;;;;;;;;;;;;;;;;6280207;22;19982;-88
2022/01/31 15:52:44;;;;;;;;;;;;;;;;;;6278807;22;20217;-91
2022/01/31 15:55:41;;;;;;;;;;;;;;;;;;6250830;22;19907;-87
2022/01/31 15:58:22;;;;;;;;;;;;;;;;;;6271994;22;20206;-82
2022/01/31 16:01:01;;;;;;;;;;;;;;;;;;6266706;22;19937;-90
2022/01/31 16:03:37;;;;;;;;;;;;;;;;;;;;;
2022/01/31 16:06:08;;;;;;;;;;;;;;;;;;6277045;22;19982;-88
2022/01/31 16:08:33;;;;;;;;;;;;;;;;;;6277484;22;20292;-89
2022/01/31 16:10:59;;;;;;;;;;;;;;;;;;6277420;22;19946;-87
2022/01/31 16:13:24;;;;;;;;;;;;;;;;;;6277486;22;19964;-89
2022/01/31 16:15:56;;;;;;;;;;;;;;;;;;6281078;22;20608;-87
2022/01/31 16:18:24;;;;;;;;;;;;;;;;;;6254039;22;19911;-84
2022/01/31 16:21:01;;;;;;;;;;;;;;;;;;6282114;22;19911;-85
2022/01/31 16:23:28;;;;;;;;;;;;;;;;;;6252917;22;19942;-90
2022/01/31 16:26:07;;;;;;;;;;;;;;;;;;6251888;22;19927;-89
2022/01/31 16:28:34;;;;;;;;;;;;;;;;;;6281108;22;20295;-88
2022/01/31 16:31:01;;;;;;;;;;;;;;;;;;6255791;22;19907;-87
2022/01/31 16:33:28;;;;;;;;;;;;;;;;;;6283407;22;19934;-85
2022/01/31 16:36:03;;;;;;;;;;;;;;;;;;6255045;22;19929;-89
2022/01/31 16:38:55;;;;;;;;;;;;;;;;;;6255985;22;19907;-92
2022/01/31 16:41:20;;;;;;;;;;;;;;;;;;6278224;22;19957;-86
2022/01/31 16:43:45;;;;;;;;;;;;;;;;;;6279390;22;19926;-83
2022/01/31 16:46:14;;;;;;;;;;;;;;;;;;6277526;22;19919;-88
2022/01/31 16:48:52;;;;;;;;;;;;;;;;;;;;;
2022/01/31 16:54:27;;;;;;;;;;;;;;;;;;6146054;23;19915;-87
2022/01/31 16:56:52;;;;;;;;;;;;;;;;;;6189176;23;20270;-88
2022/01/31 16:59:24;;;;;;;;;;;;;;;;;;6164824;23;19916;-88
2022/01/31 17:02:00;;;;;;;;;;;;;;;;;;6169383;23;19920;-92
2022/01/31 17:04:45;;;;;;;;;;;;;;;;;;6176912;23;19908;-87
2022/01/31 17:10:16;;;;;;;;;;;;;;;;;;6164960;23;20022;-89
2022/01/31 17:12:51;;;;;;;;;;;;;;;;;;6193406;23;19908;-91
2022/01/31 17:15:24;;;;;;;;;;;;;;;;;;6169897;23;19919;-91
2022/01/31 17:17:58;;;;;;;;;;;;;;;;;;6143247;23;19974;-92
2022/01/31 17:20:46;;;;;;;;;;;;;;;;;;6167514;23;19920;-94
2022/01/31 17:23:11;;;;;;;;;;;;;;;;;;6278425;22;19970;-90
2022/01/31 17:26:04;;;;;;;;;;;;;;;;;;6254400;22;19915;-88
2022/01/31 17:28:34;;;;;;;;;;;;;;;;;;6278942;22;19923;-82
2022/01/31 17:31:40;;;;;;;;;;;;;;;;;;6252172;22;19933;-81
2022/01/31 17:34:06;;;;;;;;;;;;;;;;;;6185835;23;19908;-81
2022/01/31 17:36:44;;;;;;;;;;;;;;;;;;6160445;23;19908;-80
2022/01/31 17:42:06;;;;;;;;;;;;;;;;;;6153267;23;19967;-80
2022/01/31 17:44:49;;;;;;;;;;;;;;;;;;6186086;23;19995;-80
2022/01/31 17:47:15;;;;;;;;;;;;;;;;;;6137817;23;19923;-81
2022/01/31 17:49:50;;;;;;;;;;;;;;;;;;6248519;22;20360;-80